createdAt,value
2023-02-24T00:00:34.464Z,96712.28
2023-02-24T00:01:37.799Z,96705.03
2023-02-24T00:02:39.456Z,96704.69
2023-02-24T00:03:44.871Z,96706.81
2023-02-24T00:04:51.821Z,96710.63
2023-02-24T00:05:53.621Z,96722.84
2023-02-24T00:06:55.227Z,96709.75
2023-02-24T00:07:56.780Z,96714.31
2023-02-24T00:08:58.394Z,96720.47
2023-02-24T00:09:59.968Z,96716.69
2023-02-24T00:11:11.015Z,96709.75
2023-02-24T00:12:14.290Z,96718.13
2023-02-24T00:13:22.309Z,96715.13
2023-02-24T00:14:27.171Z,96714.41
2023-02-24T00:15:29.414Z,96717.78
2023-02-24T00:16:31.132Z,96713.53
2023-02-24T00:17:32.765Z,96720.81
2023-02-24T00:18:35.004Z,96718.25
2023-02-24T00:19:37.716Z,96712.44
2023-02-24T00:20:39.483Z,96716.00
2023-02-24T00:21:41.200Z,96710.72
2023-02-24T00:22:43.499Z,96709.97
2023-02-24T00:23:47.256Z,96705.25
2023-02-24T00:24:49.048Z,96703.47
2023-02-24T00:25:59.950Z,96701.13
2023-02-24T00:27:07.809Z,96706.28
2023-02-24T00:28:09.568Z,96706.19
2023-02-24T00:29:12.566Z,96708.06
2023-02-24T00:30:14.656Z,96703.38
2023-02-24T00:31:19.654Z,96702.25
2023-02-24T00:32:21.711Z,96699.78
2023-02-24T00:33:24.563Z,96710.19
2023-02-24T00:34:30.898Z,96710.63
2023-02-24T00:35:32.590Z,96702.91
2023-02-24T00:36:34.597Z,96700.44
2023-02-24T00:37:36.132Z,96698.22
2023-02-24T00:38:39.441Z,96700.59
2023-02-24T00:39:41.724Z,96699.00
2023-02-24T00:40:46.441Z,96698.91
2023-02-24T00:41:48.001Z,96707.28
2023-02-24T00:42:49.740Z,96708.88
2023-02-24T00:43:51.522Z,96694.31
2023-02-24T00:44:54.171Z,96695.22
2023-02-24T00:45:55.801Z,96701.94
2023-02-24T00:46:57.358Z,96702.34
2023-02-24T00:47:59.009Z,96696.66
2023-02-24T00:49:04.390Z,96694.31
2023-02-24T00:50:07.067Z,96691.28
2023-02-24T00:51:10.407Z,96690.97
2023-02-24T00:52:14.602Z,96688.94
2023-02-24T00:53:18.351Z,96687.16
2023-02-24T00:54:20.504Z,96692.78
2023-02-24T00:55:23.226Z,96686.94
2023-02-24T00:56:26.651Z,96688.53
2023-02-24T00:57:28.172Z,96682.03
2023-02-24T00:58:30.003Z,96685.59
2023-02-24T00:59:31.879Z,96675.75
2023-02-24T01:00:36.646Z,96678.66
2023-02-24T01:01:38.416Z,96675.41
2023-02-24T01:02:40.024Z,96673.28
2023-02-24T01:03:42.347Z,96675.72
2023-02-24T01:04:44.415Z,96682.06
2023-02-24T01:05:46.121Z,96680.69
2023-02-24T01:06:50.216Z,96670.66
2023-02-24T01:07:52.085Z,96674.38
2023-02-24T01:08:54.488Z,96671.69
2023-02-24T01:09:57.599Z,96672.97
2023-02-24T01:11:19.434Z,96668.72
2023-02-24T01:12:38.803Z,96672.44
2023-02-24T01:13:40.429Z,96665.94
2023-02-24T01:14:45.328Z,96672.22
2023-02-24T01:15:47.865Z,96670.25
2023-02-24T01:16:52.870Z,96668.66
2023-02-24T01:17:54.371Z,96664.41
2023-02-24T01:18:56.347Z,96667.97
2023-02-24T01:20:15.180Z,96674.22
2023-02-24T01:21:18.527Z,96667.31
2023-02-24T01:22:21.775Z,96657.38
2023-02-24T01:23:24.273Z,96664.28
2023-02-24T01:24:26.130Z,96654.81
2023-02-24T01:25:27.879Z,96653.69
2023-02-24T01:26:30.957Z,96651.34
2023-02-24T01:27:32.550Z,96656.25
2023-02-24T01:28:34.229Z,96661.97
2023-02-24T01:29:39.787Z,96644.41
2023-02-24T01:30:43.882Z,96643.75
2023-02-24T01:31:48.681Z,96649.88
2023-02-24T01:32:51.521Z,96644.50
2023-02-24T01:33:55.052Z,96642.97
2023-02-24T01:34:56.647Z,96640.69
2023-02-24T01:35:58.206Z,96639.81
2023-02-24T01:36:59.748Z,96643.28
2023-02-24T01:38:01.909Z,96643.28
2023-02-24T01:39:05.916Z,96640.91
2023-02-24T01:40:21.661Z,96651.75
2023-02-24T01:41:27.789Z,96637.13
2023-02-24T01:42:29.364Z,96642.50
2023-02-24T01:43:34.540Z,96648.28
2023-02-24T01:44:36.087Z,96645.72
2023-02-24T01:45:40.048Z,96647.94
2023-02-24T01:46:44.088Z,96647.16
2023-02-24T01:47:47.394Z,96651.38
2023-02-24T01:48:57.653Z,96647.78
2023-02-24T01:49:59.361Z,96647.78
2023-02-24T01:51:01.827Z,96644.09
2023-02-24T01:52:27.073Z,96653.84
2023-02-24T01:53:29.395Z,96659.63
2023-02-24T01:54:36.214Z,96656.41
2023-02-24T01:55:49.153Z,96654.84
2023-02-24T01:56:52.533Z,96655.38
2023-02-24T01:57:55.633Z,96654.03
2023-02-24T01:58:59.318Z,96653.38
2023-02-24T02:00:19.500Z,96651.56
2023-02-24T02:01:21.563Z,96657.91
2023-02-24T02:02:24.177Z,96656.44
2023-02-24T02:03:26.222Z,96652.41
2023-02-24T02:04:35.277Z,96659.75
2023-02-24T02:05:39.342Z,96662.53
2023-02-24T02:06:41.632Z,96661.81
2023-02-24T02:07:44.941Z,96661.06
2023-02-24T02:08:47.419Z,96658.53
2023-02-24T02:09:50.432Z,96665.16
2023-02-24T02:10:58.696Z,96660.34
2023-02-24T02:12:00.247Z,96664.84
2023-02-24T02:13:04.588Z,96661.81
2023-02-24T02:14:06.268Z,96662.56
2023-02-24T02:15:08.809Z,96662.34
2023-02-24T02:16:31.988Z,96663.47
2023-02-24T02:17:40.977Z,96663.47
2023-02-24T02:18:56.421Z,96667.75
2023-02-24T02:20:25.718Z,96664.59
2023-02-24T02:21:46.138Z,96661.59
2023-02-24T02:23:06.856Z,96659.13
2023-02-24T02:24:33.231Z,96662.34
2023-02-24T02:25:34.735Z,96661.22
2023-02-24T02:27:02.053Z,96658.78
2023-02-24T02:28:22.038Z,96656.56
2023-02-24T02:29:45.505Z,96662.09
2023-02-24T02:31:08.647Z,96659.78
2023-02-24T02:32:31.668Z,96663.47
2023-02-24T02:33:48.041Z,96650.94
2023-02-24T02:35:08.560Z,96659.78
2023-02-24T02:36:38.718Z,96660.56
2023-02-24T02:37:49.189Z,96660.34
2023-02-24T02:39:16.409Z,96653.97
2023-02-24T02:40:33.090Z,96655.28
2023-02-24T02:41:54.916Z,96658.91
2023-02-24T02:43:04.316Z,96668.84
2023-02-24T02:44:16.423Z,96666.59
2023-02-24T02:45:34.147Z,96665.03
2023-02-24T02:46:42.474Z,96665.94
2023-02-24T02:47:59.229Z,96671.16
2023-02-24T02:49:17.692Z,96667.72
2023-02-24T02:50:30.159Z,96665.72
2023-02-24T02:51:38.828Z,96662.16
2023-02-24T02:52:47.177Z,96662.47
2023-02-24T02:53:59.378Z,96663.25
2023-02-24T02:55:18.562Z,96664.50
2023-02-24T02:56:25.542Z,96656.44
2023-02-24T02:57:30.464Z,96664.84
2023-02-24T02:58:36.189Z,96663.94
2023-02-24T02:59:44.948Z,96663.03
2023-02-24T03:01:03.911Z,96658.22
2023-02-24T03:02:13.453Z,96663.25
2023-02-24T03:03:17.809Z,96665.72
2023-02-24T03:04:23.242Z,96663.03
2023-02-24T03:05:30.331Z,96668.06
2023-02-24T03:06:40.594Z,96666.59
2023-02-24T03:07:47.152Z,96664.47
2023-02-24T03:09:16.019Z,96668.16
2023-02-24T03:10:27.542Z,96665.56
2023-02-24T03:11:32.134Z,96666.91
2023-02-24T03:12:37.329Z,96665.22
2023-02-24T03:13:42.986Z,96666.44
2023-02-24T03:14:53.340Z,96670.34
2023-02-24T03:15:57.054Z,96663.63
2023-02-24T03:16:59.326Z,96664.50
2023-02-24T03:18:11.163Z,96664.97
2023-02-24T03:19:15.724Z,96665.66
2023-02-24T03:20:24.873Z,96664.22
2023-02-24T03:21:51.891Z,96665.03
2023-02-24T03:23:02.523Z,96661.59
2023-02-24T03:24:06.432Z,96674.47
2023-02-24T03:25:09.008Z,96663.28
2023-02-24T03:26:33.180Z,96662.84
2023-02-24T03:27:49.259Z,96666.63
2023-02-24T03:29:18.136Z,96673.47
2023-02-24T03:30:34.945Z,96665.75
2023-02-24T03:31:47.983Z,96671.78
2023-02-24T03:33:02.561Z,96667.88
2023-02-24T03:34:13.424Z,96666.22
2023-02-24T03:35:22.173Z,96663.53
2023-02-24T03:36:23.698Z,96670.88
2023-02-24T03:37:28.205Z,96666.41
2023-02-24T03:38:33.182Z,96670.66
2023-02-24T03:39:34.982Z,96663.41
2023-02-24T03:40:43.400Z,96675.81
2023-02-24T03:42:08.759Z,96661.28
2023-02-24T03:43:16.989Z,96663.50
2023-02-24T03:44:18.553Z,96665.06
2023-02-24T03:45:22.951Z,96669.78
2023-02-24T03:46:25.164Z,96665.28
2023-02-24T03:47:26.895Z,96663.72
2023-02-24T03:48:29.063Z,96667.09
2023-02-24T03:49:31.178Z,96658.81
2023-02-24T03:50:33.914Z,96660.81
2023-02-24T03:51:37.352Z,96663.25
2023-02-24T03:52:52.888Z,96658.59
2023-02-24T03:54:30.902Z,96656.22
2023-02-24T03:55:44.706Z,96659.59
2023-02-24T03:57:09.853Z,96658.59
2023-02-24T03:58:49.250Z,96657.91
2023-02-24T04:00:42.403Z,96651.66
2023-02-24T04:01:58.056Z,96657.00
2023-02-24T04:03:25.685Z,96653.22
2023-02-24T04:04:40.056Z,96656.31
2023-02-24T04:06:09.334Z,96657.44
2023-02-24T04:07:15.467Z,96657.44
2023-02-24T04:08:17.572Z,96659.25
2023-02-24T04:09:29.348Z,96653.88
2023-02-24T04:10:59.775Z,96656.22
2023-02-24T04:12:34.056Z,96661.69
2023-02-24T04:13:44.792Z,96653.22
2023-02-24T04:14:49.027Z,96655.44
2023-02-24T04:16:09.395Z,96656.44
2023-02-24T04:17:37.676Z,96660.34
2023-02-24T04:18:41.501Z,96660.91
2023-02-24T04:19:45.381Z,96660.13
2023-02-24T04:20:53.217Z,96658.38
2023-02-24T04:21:55.636Z,96661.94
2023-02-24T04:23:02.078Z,96665.06
2023-02-24T04:24:11.560Z,96658.78
2023-02-24T04:25:17.276Z,96658.00
2023-02-24T04:26:21.968Z,96667.75
2023-02-24T04:27:24.299Z,96657.81
2023-02-24T04:28:29.005Z,96652.84
2023-02-24T04:29:36.226Z,96651.66
2023-02-24T04:30:45.833Z,96656.13
2023-02-24T04:31:53.246Z,96648.66
2023-02-24T04:32:56.596Z,96659.06
2023-02-24T04:34:00.273Z,96657.47
2023-02-24T04:35:09.952Z,96662.16
2023-02-24T04:36:12.965Z,96658.47
2023-02-24T04:37:14.559Z,96650.72
2023-02-24T04:38:17.308Z,96650.50
2023-02-24T04:39:20.923Z,96655.63
2023-02-24T04:40:23.423Z,96658.34
2023-02-24T04:41:25.023Z,96654.88
2023-02-24T04:42:27.172Z,96656.31
2023-02-24T04:43:29.517Z,96650.09
2023-02-24T04:44:32.830Z,96649.19
2023-02-24T04:45:34.549Z,96645.19
2023-02-24T04:46:36.142Z,96647.31
2023-02-24T04:47:37.697Z,96656.16
2023-02-24T04:48:39.313Z,96645.41
2023-02-24T04:49:44.664Z,96641.28
2023-02-24T04:50:46.511Z,96645.63
2023-02-24T04:51:48.066Z,96646.53
2023-02-24T04:53:01.425Z,96639.59
2023-02-24T04:54:03.793Z,96642.81
2023-02-24T04:55:10.218Z,96638.66
2023-02-24T04:56:12.151Z,96647.72
2023-02-24T04:57:14.430Z,96643.06
2023-02-24T04:58:19.340Z,96646.28
2023-02-24T04:59:22.558Z,96649.06
2023-02-24T05:00:26.590Z,96645.38
2023-02-24T05:01:29.086Z,96645.59
2023-02-24T05:02:30.606Z,96646.19
2023-02-24T05:03:32.219Z,96645.75
2023-02-24T05:04:38.904Z,96646.53
2023-02-24T05:05:43.021Z,96642.50
2023-02-24T05:06:45.238Z,96644.31
2023-02-24T05:07:47.758Z,96646.53
2023-02-24T05:08:52.461Z,96643.41
2023-02-24T05:09:54.928Z,96638.72
2023-02-24T05:10:58.525Z,96646.31
2023-02-24T05:12:00.503Z,96639.41
2023-02-24T05:13:02.593Z,96641.84
2023-02-24T05:14:04.675Z,96641.84
2023-02-24T05:15:08.198Z,96638.94
2023-02-24T05:16:10.538Z,96645.19
2023-02-24T05:17:14.131Z,96650.00
2023-02-24T05:18:26.258Z,96650.00
2023-02-24T05:19:47.031Z,96646.66
2023-02-24T05:21:10.090Z,96645.88
2023-02-24T05:22:11.789Z,96648.09
2023-02-24T05:23:13.666Z,96640.50
2023-02-24T05:24:17.239Z,96650.53
2023-02-24T05:25:20.378Z,96647.63
2023-02-24T05:26:25.699Z,96643.84
2023-02-24T05:27:28.178Z,96640.22
2023-02-24T05:28:31.765Z,96653.41
2023-02-24T05:29:35.174Z,96652.75
2023-02-24T05:30:37.107Z,96656.75
2023-02-24T05:31:38.853Z,96647.78
2023-02-24T05:32:40.944Z,96660.19
2023-02-24T05:33:44.334Z,96653.38
2023-02-24T05:34:45.854Z,96656.47
2023-02-24T05:35:48.728Z,96651.97
2023-02-24T05:36:50.723Z,96650.63
2023-02-24T05:37:52.295Z,96658.44
2023-02-24T05:38:58.167Z,96648.47
2023-02-24T05:40:03.593Z,96654.63
2023-02-24T05:41:17.940Z,96649.25
2023-02-24T05:42:19.568Z,96649.97
2023-02-24T05:43:21.114Z,96648.88
2023-02-24T05:44:26.216Z,96650.72
2023-02-24T05:45:30.430Z,96650.50
2023-02-24T05:46:33.986Z,96652.19
2023-02-24T05:47:36.974Z,96653.31
2023-02-24T05:48:38.480Z,96651.66
2023-02-24T05:49:40.036Z,96648.50
2023-02-24T05:50:46.143Z,96648.09
2023-02-24T05:51:56.605Z,96650.78
2023-02-24T05:52:58.166Z,96659.69
2023-02-24T05:53:59.731Z,96654.66
2023-02-24T05:55:02.725Z,96659.94
2023-02-24T05:56:07.120Z,96664.41
2023-02-24T05:57:15.439Z,96665.06
2023-02-24T05:58:17.076Z,96668.88
2023-02-24T05:59:21.424Z,96665.63
2023-02-24T06:00:25.922Z,96674.03
2023-02-24T06:01:33.394Z,96669.44
2023-02-24T06:02:37.703Z,96671.13
2023-02-24T06:03:41.453Z,96680.50
2023-02-24T06:04:51.687Z,96678.72
2023-02-24T06:05:53.917Z,96676.22
2023-02-24T06:06:55.536Z,96676.44
2023-02-24T06:08:06.185Z,96681.81
2023-02-24T06:09:11.016Z,96678.00
2023-02-24T06:10:12.614Z,96680.25
2023-02-24T06:11:14.135Z,96688.06
2023-02-24T06:12:16.998Z,96684.94
2023-02-24T06:13:18.537Z,96687.28
2023-02-24T06:14:21.457Z,96685.81
2023-02-24T06:15:23.031Z,96685.59
2023-02-24T06:16:28.012Z,96688.72
2023-02-24T06:17:29.750Z,96686.38
2023-02-24T06:18:31.348Z,96684.13
2023-02-24T06:19:33.511Z,96676.19
2023-02-24T06:20:35.026Z,96683.56
2023-02-24T06:21:41.217Z,96680.41
2023-02-24T06:22:42.840Z,96685.34
2023-02-24T06:23:45.252Z,96691.47
2023-02-24T06:24:49.454Z,96686.47
2023-02-24T06:25:51.139Z,96690.16
2023-02-24T06:26:53.753Z,96690.50
2023-02-24T06:27:56.230Z,96690.03
2023-02-24T06:29:01.012Z,96693.06
2023-02-24T06:30:03.713Z,96693.97
2023-02-24T06:31:06.886Z,96693.88
2023-02-24T06:32:08.783Z,96698.53
2023-02-24T06:33:10.733Z,96694.06
2023-02-24T06:34:18.389Z,96694.28
2023-02-24T06:35:21.372Z,96692.00
2023-02-24T06:36:23.351Z,96695.84
2023-02-24T06:37:25.078Z,96695.84
2023-02-24T06:38:26.659Z,96696.81
2023-02-24T06:39:28.176Z,96699.41
2023-02-24T06:40:31.334Z,96695.84
2023-02-24T06:41:33.024Z,96697.38
2023-02-24T06:42:34.583Z,96705.88
2023-02-24T06:43:38.687Z,96693.91
2023-02-24T06:44:41.379Z,96696.94
2023-02-24T06:45:43.002Z,96700.75
2023-02-24T06:46:46.249Z,96702.41
2023-02-24T06:47:48.930Z,96698.16
2023-02-24T06:48:50.478Z,96691.22
2023-02-24T06:49:52.047Z,96702.75
2023-02-24T06:50:55.106Z,96695.16
2023-02-24T06:51:57.735Z,96699.03
2023-02-24T06:53:00.815Z,96700.28
2023-02-24T06:54:02.844Z,96703.84
2023-02-24T06:55:04.994Z,96697.59
2023-02-24T06:56:14.962Z,96700.31
2023-02-24T06:57:17.721Z,96700.53
2023-02-24T06:58:20.253Z,96697.31
2023-02-24T06:59:21.943Z,96699.25
2023-02-24T07:00:36.947Z,96700.38
2023-02-24T07:01:45.308Z,96694.56
2023-02-24T07:02:48.282Z,96697.47
2023-02-24T07:04:08.036Z,96700.16
2023-02-24T07:05:14.531Z,96698.38
2023-02-24T07:06:23.915Z,96697.03
2023-02-24T07:07:26.290Z,96698.81
2023-02-24T07:08:28.271Z,96694.25
2023-02-24T07:09:31.550Z,96696.00
2023-02-24T07:10:33.136Z,96699.72
2023-02-24T07:11:36.524Z,96699.06
2023-02-24T07:12:38.044Z,96699.25
2023-02-24T07:13:41.086Z,96704.97
2023-02-24T07:14:42.646Z,96698.59
2023-02-24T07:15:49.285Z,96694.38
2023-02-24T07:16:55.483Z,96698.72
2023-02-24T07:17:57.482Z,96698.13
2023-02-24T07:19:02.733Z,96695.13
2023-02-24T07:20:12.198Z,96688.09
2023-02-24T07:21:16.331Z,96694.94
2023-02-24T07:22:25.029Z,96688.22
2023-02-24T07:23:29.372Z,96680.97
2023-02-24T07:24:36.213Z,96685.19
2023-02-24T07:25:39.585Z,96682.97
2023-02-24T07:26:42.316Z,96681.06
2023-02-24T07:27:43.854Z,96681.16
2023-02-24T07:28:48.039Z,96682.72
2023-02-24T07:29:53.914Z,96676.69
2023-02-24T07:30:57.333Z,96681.16
2023-02-24T07:32:03.464Z,96687.72
2023-02-24T07:33:05.636Z,96682.38
2023-02-24T07:34:07.195Z,96678.91
2023-02-24T07:35:09.176Z,96683.16
2023-02-24T07:36:14.967Z,96682.03
2023-02-24T07:37:16.974Z,96680.25
2023-02-24T07:38:22.975Z,96681.13
2023-02-24T07:39:25.633Z,96677.44
2023-02-24T07:40:28.330Z,96679.00
2023-02-24T07:41:31.341Z,96674.41
2023-02-24T07:42:35.399Z,96683.78
2023-02-24T07:43:38.774Z,96678.88
2023-02-24T07:44:41.212Z,96673.94
2023-02-24T07:45:42.974Z,96681.31
2023-02-24T07:46:44.903Z,96671.91
2023-02-24T07:47:46.417Z,96672.09
2023-02-24T07:48:47.989Z,96673.88
2023-02-24T07:49:51.204Z,96671.88
2023-02-24T07:50:53.013Z,96669.25
2023-02-24T07:51:57.772Z,96667.56
2023-02-24T07:52:59.730Z,96678.75
2023-02-24T07:54:03.294Z,96665.09
2023-02-24T07:55:05.496Z,96668.19
2023-02-24T07:56:13.482Z,96668.19
2023-02-24T07:57:15.040Z,96667.41
2023-02-24T07:58:18.578Z,96666.53
2023-02-24T07:59:22.041Z,96665.75
2023-02-24T08:00:28.369Z,96661.63
2023-02-24T08:01:38.866Z,96663.31
2023-02-24T08:02:40.552Z,96662.25
2023-02-24T08:03:42.175Z,96664.28
2023-02-24T08:04:50.211Z,96660.72
2023-02-24T08:05:55.676Z,96665.56
2023-02-24T08:06:59.085Z,96665.47
2023-02-24T08:08:00.658Z,96658.63
2023-02-24T08:09:16.752Z,96665.56
2023-02-24T08:10:27.015Z,96663.97
2023-02-24T08:11:36.863Z,96660.50
2023-02-24T08:12:42.736Z,96652.94
2023-02-24T08:13:44.985Z,96658.31
2023-02-24T08:14:51.485Z,96659.88
2023-02-24T08:15:56.566Z,96662.22
2023-02-24T08:17:01.730Z,96665.94
2023-02-24T08:18:03.371Z,96659.88
2023-02-24T08:19:20.222Z,96662.31
2023-02-24T08:20:22.138Z,96654.97
2023-02-24T08:21:23.790Z,96663.44
2023-02-24T08:22:25.382Z,96660.09
2023-02-24T08:23:27.155Z,96656.16
2023-02-24T08:24:30.149Z,96655.94
2023-02-24T08:25:38.389Z,96660.28
2023-02-24T08:26:44.772Z,96661.06
2023-02-24T08:28:06.909Z,96658.75
2023-02-24T08:29:09.762Z,96656.16
2023-02-24T08:30:23.651Z,96660.56
2023-02-24T08:31:25.800Z,96659.22
2023-02-24T08:32:43.550Z,96663.44
2023-02-24T08:33:45.313Z,96660.88
2023-02-24T08:34:49.572Z,96661.53
2023-02-24T08:35:57.922Z,96660.75
2023-02-24T08:37:00.480Z,96664.13
2023-02-24T08:38:04.769Z,96662.09
2023-02-24T08:39:07.293Z,96654.41
2023-02-24T08:40:34.054Z,96656.06
2023-02-24T08:41:51.403Z,96653.84
2023-02-24T08:42:52.974Z,96660.75
2023-02-24T08:43:55.504Z,96653.59
2023-02-24T08:44:58.210Z,96659.16
2023-02-24T08:46:13.461Z,96654.88
2023-02-24T08:47:21.053Z,96657.78
2023-02-24T08:48:38.330Z,96666.06
2023-02-24T08:49:40.497Z,96661.81
2023-02-24T08:50:45.636Z,96653.56
2023-02-24T08:51:49.232Z,96655.81
2023-02-24T08:52:50.840Z,96657.34
2023-02-24T08:53:54.374Z,96659.69
2023-02-24T08:54:59.325Z,96655.25
2023-02-24T08:56:09.656Z,96660.75
2023-02-24T08:57:15.215Z,96666.53
2023-02-24T08:58:18.509Z,96664.31
2023-02-24T08:59:38.484Z,96663.94
2023-02-24T09:00:49.303Z,96670.47
2023-02-24T09:02:04.306Z,96664.88
2023-02-24T09:03:08.338Z,96662.44
2023-02-24T09:04:12.725Z,96665.59
2023-02-24T09:05:14.813Z,96669.13
2023-02-24T09:06:25.413Z,96666.63
2023-02-24T09:07:35.506Z,96662.81
2023-02-24T09:08:40.140Z,96670.75
2023-02-24T09:09:42.588Z,96659.22
2023-02-24T09:10:46.334Z,96676.25
2023-02-24T09:11:56.015Z,96673.06
2023-02-24T09:12:58.643Z,96672.28
2023-02-24T09:14:01.306Z,96671.97
2023-02-24T09:15:04.692Z,96669.50
2023-02-24T09:16:06.607Z,96677.56
2023-02-24T09:17:11.697Z,96680.50
2023-02-24T09:18:14.475Z,96672.44
2023-02-24T09:19:36.091Z,96677.25
2023-02-24T09:20:56.448Z,96678.03
2023-02-24T09:22:21.146Z,96678.94
2023-02-24T09:23:29.929Z,96680.59
2023-02-24T09:24:34.367Z,96684.31
2023-02-24T09:25:43.945Z,96680.50
2023-02-24T09:26:45.528Z,96683.66
2023-02-24T09:27:56.214Z,96683.81
2023-02-24T09:28:58.093Z,96671.56
2023-02-24T09:30:08.102Z,96673.59
2023-02-24T09:31:09.903Z,96671.31
2023-02-24T09:32:14.875Z,96674.19
2023-02-24T09:33:39.004Z,96668.34
2023-02-24T09:34:43.973Z,96671.94
2023-02-24T09:35:46.823Z,96666.44
2023-02-24T09:37:01.584Z,96670.88
2023-02-24T09:38:07.355Z,96674.19
2023-02-24T09:39:08.903Z,96675.75
2023-02-24T09:40:17.044Z,96661.72
2023-02-24T09:41:54.036Z,96672.78
2023-02-24T09:42:58.381Z,96666.22
2023-02-24T09:44:18.500Z,96668.59
2023-02-24T09:45:33.383Z,96665.63
2023-02-24T09:46:40.506Z,96663.88
2023-02-24T09:47:57.240Z,96658.03
2023-02-24T09:49:14.655Z,96658.25
2023-02-24T09:50:55.538Z,96659.69
2023-02-24T09:52:00.695Z,96653.31
2023-02-24T09:53:19.359Z,96657.09
2023-02-24T09:54:24.753Z,96662.69
2023-02-24T09:55:36.104Z,96658.66
2023-02-24T09:57:08.346Z,96659.59
2023-02-24T09:58:43.677Z,96654.34
2023-02-24T10:00:23.667Z,96659.03
2023-02-24T10:01:34.374Z,96646.22
2023-02-24T10:03:00.168Z,96648.44
2023-02-24T10:04:40.727Z,96646.81
2023-02-24T10:05:50.693Z,96645.78
2023-02-24T10:07:11.085Z,96649.06
2023-02-24T10:08:25.418Z,96640.56
2023-02-24T10:09:41.362Z,96647.50
2023-02-24T10:11:00.868Z,96641.78
2023-02-24T10:12:07.134Z,96637.19
2023-02-24T10:13:30.324Z,96647.06
2023-02-24T10:14:42.676Z,96645.63
2023-02-24T10:15:57.984Z,96631.75
2023-02-24T10:17:17.854Z,96631.75
2023-02-24T10:18:48.553Z,96637.00
2023-02-24T10:20:02.640Z,96634.84
2023-02-24T10:22:00.496Z,96632.22
2023-02-24T10:23:29.682Z,96633.25
2023-02-24T10:24:49.648Z,96626.88
2023-02-24T10:26:06.680Z,96620.72
2023-02-24T10:27:27.242Z,96618.66
2023-02-24T10:29:02.671Z,96620.72
2023-02-24T10:30:11.149Z,96616.63
2023-02-24T10:31:26.859Z,96605.81
2023-02-24T10:32:53.790Z,96606.69
2023-02-24T10:34:07.991Z,96607.56
2023-02-24T10:35:18.015Z,96608.34
2023-02-24T10:36:25.934Z,96606.53
2023-02-24T10:37:29.542Z,96600.91
2023-02-24T10:38:32.776Z,96601.44
2023-02-24T10:39:34.379Z,96598.94
2023-02-24T10:40:57.415Z,96599.41
2023-02-24T10:42:19.660Z,96589.25
2023-02-24T10:43:30.236Z,96587.69
2023-02-24T10:44:36.253Z,96596.47
2023-02-24T10:45:45.331Z,96584.59
2023-02-24T10:46:47.610Z,96590.13
2023-02-24T10:47:58.138Z,96588.03
2023-02-24T10:49:02.079Z,96588.75
2023-02-24T10:50:12.624Z,96581.13
2023-02-24T10:51:22.180Z,96589.00
2023-02-24T10:52:50.561Z,96582.50
2023-02-24T10:54:14.897Z,96584.38
2023-02-24T10:55:43.641Z,96582.94
2023-02-24T10:56:55.416Z,96582.88
2023-02-24T10:58:16.031Z,96581.69
2023-02-24T10:59:25.420Z,96581.78
2023-02-24T11:00:51.046Z,96577.19
2023-02-24T11:02:06.777Z,96576.06
2023-02-24T11:03:19.450Z,96577.00
2023-02-24T11:04:55.623Z,96576.94
2023-02-24T11:06:08.346Z,96568.59
2023-02-24T11:07:24.732Z,96564.63
2023-02-24T11:08:37.027Z,96566.25
2023-02-24T11:09:52.717Z,96568.59
2023-02-24T11:10:58.873Z,96559.59
2023-02-24T11:12:41.142Z,96556.72
2023-02-24T11:14:08.141Z,96556.38
2023-02-24T11:15:51.188Z,96552.66
2023-02-24T11:17:13.845Z,96547.69
2023-02-24T11:18:27.564Z,96537.63
2023-02-24T11:19:35.515Z,96542.13
2023-02-24T11:20:48.997Z,96541.47
2023-02-24T11:21:54.513Z,96538.50
2023-02-24T11:22:57.656Z,96541.81
2023-02-24T11:24:02.615Z,96539.03
2023-02-24T11:25:08.923Z,96529.25
2023-02-24T11:26:30.726Z,96535.38
2023-02-24T11:27:32.720Z,96529.50
2023-02-24T11:28:54.370Z,96524.94
2023-02-24T11:30:19.513Z,96525.44
2023-02-24T11:31:49.382Z,96512.06
2023-02-24T11:33:31.491Z,96518.44
2023-02-24T11:34:51.704Z,96519.72
2023-02-24T11:36:37.244Z,96519.72
2023-02-24T11:37:46.471Z,96516.38
2023-02-24T11:39:03.136Z,96509.94
2023-02-24T11:40:26.555Z,96513.06
2023-02-24T11:41:33.931Z,96506.25
2023-02-24T11:42:43.755Z,96507.25
2023-02-24T11:43:56.415Z,96498.91
2023-02-24T11:45:24.994Z,96497.41
2023-02-24T11:46:39.468Z,96499.56
2023-02-24T11:47:52.877Z,96488.69
2023-02-24T11:48:58.515Z,96491.97
2023-02-24T11:50:19.889Z,96486.41
2023-02-24T11:51:27.554Z,96481.03
2023-02-24T11:52:33.923Z,96474.41
2023-02-24T11:53:49.172Z,96474.56
2023-02-24T11:54:55.009Z,96470.88
2023-02-24T11:56:02.776Z,96470.19
2023-02-24T11:57:11.776Z,96453.34
2023-02-24T11:58:50.895Z,96457.25
2023-02-24T12:00:05.291Z,96450.88
2023-02-24T12:01:16.021Z,96447.56
2023-02-24T12:02:39.703Z,96443.09
2023-02-24T12:04:05.781Z,96435.88
2023-02-24T12:05:15.956Z,96441.69
2023-02-24T12:07:02.139Z,96441.00
2023-02-24T12:08:09.756Z,96441.00
2023-02-24T12:09:17.466Z,96436.31
2023-02-24T12:10:27.654Z,96429.25
2023-02-24T12:11:42.949Z,96434.72
2023-02-24T12:13:15.238Z,96433.88
2023-02-24T12:14:28.776Z,96434.78
2023-02-24T12:15:38.977Z,96422.38
2023-02-24T12:16:47.152Z,96427.13
2023-02-24T12:18:04.348Z,96428.06
2023-02-24T12:19:23.835Z,96431.19
2023-02-24T12:21:06.746Z,96432.53
2023-02-24T12:22:18.074Z,96426.69
2023-02-24T12:23:29.645Z,96427.06
2023-02-24T12:24:31.854Z,96422.06
2023-02-24T12:25:47.138Z,96420.31
2023-02-24T12:27:19.445Z,96418.16
2023-02-24T12:28:41.129Z,96411.69
2023-02-24T12:30:07.270Z,96404.22
2023-02-24T12:31:24.487Z,96412.53
2023-02-24T12:33:00.337Z,96408.88
2023-02-24T12:34:37.568Z,96404.22
2023-02-24T12:35:56.116Z,96403.09
2023-02-24T12:37:07.780Z,96400.47
2023-02-24T12:38:18.841Z,96393.63
2023-02-24T12:39:28.435Z,96391.34
2023-02-24T12:41:06.161Z,96389.56
2023-02-24T12:42:24.654Z,96385.84
2023-02-24T12:43:38.832Z,96383.13
2023-02-24T12:44:52.456Z,96384.72
2023-02-24T12:46:03.323Z,96385.81
2023-02-24T12:47:15.568Z,96390.16
2023-02-24T12:48:28.945Z,96386.94
2023-02-24T12:49:45.824Z,96387.19
2023-02-24T12:51:11.779Z,96381.28
2023-02-24T12:52:31.333Z,96392.03
2023-02-24T12:53:52.490Z,96385.94
2023-02-24T12:55:16.116Z,96378.31
2023-02-24T12:56:28.834Z,96382.00
2023-02-24T12:57:48.370Z,96370.44
2023-02-24T12:58:56.609Z,96368.34
2023-02-24T13:00:06.609Z,96370.69
2023-02-24T13:01:14.397Z,96372.00
2023-02-24T13:02:39.335Z,96365.59
2023-02-24T13:03:59.221Z,96367.97
2023-02-24T13:05:19.723Z,96366.03
2023-02-24T13:07:20.078Z,96371.81
2023-02-24T13:08:26.303Z,96372.47
2023-02-24T13:09:54.240Z,96364.16
2023-02-24T13:10:58.400Z,96361.88
2023-02-24T13:12:06.810Z,96361.56
2023-02-24T13:13:30.335Z,96359.47
2023-02-24T13:14:35.840Z,96351.00
2023-02-24T13:15:37.409Z,96351.09
2023-02-24T13:16:39.118Z,96356.53
2023-02-24T13:17:48.085Z,96355.03
2023-02-24T13:18:49.695Z,96355.03
2023-02-24T13:19:52.616Z,96364.94
2023-02-24T13:21:20.802Z,96349.78
2023-02-24T13:22:27.067Z,96359.41
2023-02-24T13:23:29.041Z,96348.63
2023-02-24T13:24:31.352Z,96351.00
2023-02-24T13:25:39.316Z,96350.34
2023-02-24T13:26:40.925Z,96355.06
2023-02-24T13:27:43.520Z,96348.94
2023-02-24T13:28:45.093Z,96343.16
2023-02-24T13:29:49.751Z,96345.81
2023-02-24T13:31:04.523Z,96346.50
2023-02-24T13:32:06.865Z,96345.00